createdAt,value
2019-05-10T00:00:13.453Z,79.30
2019-05-10T00:03:00.019Z,79.20
2019-05-10T00:05:47.678Z,79.00
2019-05-10T00:08:34.466Z,79.00
2019-05-10T00:11:07.548Z,78.90
2019-05-10T00:13:39.100Z,78.90
2019-05-10T00:16:07.805Z,79.00
2019-05-10T00:18:36.261Z,78.80
2019-05-10T00:21:04.656Z,79.30
2019-05-10T00:23:33.079Z,78.40
2019-05-10T00:26:01.507Z,78.40
2019-05-10T00:28:29.954Z,78.40
2019-05-10T00:30:58.730Z,78.20
2019-05-10T00:33:27.145Z,78.00
2019-05-10T00:35:55.562Z,78.10
2019-05-10T00:38:23.977Z,77.90
2019-05-10T00:40:52.421Z,77.80
2019-05-10T00:43:20.839Z,77.70
2019-05-10T00:45:49.258Z,77.50
2019-05-10T00:48:17.736Z,77.50
2019-05-10T00:50:46.141Z,77.30
2019-05-10T00:53:14.866Z,77.20
2019-05-10T00:55:43.255Z,77.10
2019-05-10T00:58:11.693Z,77.10
2019-05-10T01:00:40.078Z,77.00
2019-05-10T01:03:08.697Z,76.90
2019-05-10T01:05:37.099Z,76.90
2019-05-10T01:08:05.510Z,76.90
2019-05-10T01:10:33.996Z,76.80
2019-05-10T01:13:02.560Z,76.70
2019-05-10T01:15:30.989Z,76.60
2019-05-10T01:17:59.424Z,76.50
2019-05-10T01:20:27.852Z,76.30
2019-05-10T01:22:56.440Z,76.10
2019-05-10T01:25:34.485Z,76.00
2019-05-10T01:27:55.141Z,76.00
2019-05-10T01:30:23.816Z,75.80
2019-05-10T01:32:52.668Z,75.80
2019-05-10T01:35:21.156Z,75.80
2019-05-10T01:37:49.547Z,75.80
2019-05-10T01:40:18.030Z,75.70
2019-05-10T01:42:46.443Z,75.60
2019-05-10T01:45:15.041Z,75.50
2019-05-10T01:47:43.447Z,75.50
2019-05-10T01:50:12.790Z,75.50
2019-05-10T01:52:41.203Z,75.60
2019-05-10T01:55:09.809Z,75.60
2019-05-10T01:57:38.287Z,75.40
2019-05-10T02:00:08.550Z,75.30
2019-05-10T02:02:37.160Z,75.30
2019-05-10T02:05:06.521Z,75.30
2019-05-10T02:07:35.201Z,75.30
2019-05-10T02:10:06.197Z,75.30
2019-05-10T02:12:34.677Z,75.30
2019-05-10T02:15:03.461Z,75.30
2019-05-10T02:17:31.889Z,75.30
2019-05-10T02:20:00.316Z,75.40
2019-05-10T02:22:28.731Z,75.50
2019-05-10T02:24:57.155Z,75.60
2019-05-10T02:27:25.809Z,75.60
2019-05-10T02:29:54.241Z,75.60
2019-05-10T02:32:22.667Z,75.70
2019-05-10T02:34:51.166Z,76.50
2019-05-10T02:37:19.558Z,75.50
2019-05-10T02:39:47.997Z,75.50
2019-05-10T02:42:16.696Z,75.60
2019-05-10T02:44:45.110Z,76.20
2019-05-10T02:47:13.852Z,75.70
2019-05-10T02:49:42.257Z,75.70
2019-05-10T02:52:10.858Z,75.70
2019-05-10T02:54:39.261Z,75.70
2019-05-10T02:57:08.241Z,75.80
2019-05-10T02:59:37.492Z,76.70
2019-05-10T03:02:06.718Z,75.80
2019-05-10T03:04:36.882Z,75.80
2019-05-10T03:07:07.103Z,75.80
2019-05-10T03:09:35.515Z,75.90
2019-05-10T03:12:24.712Z,76.00
2019-05-10T03:14:57.807Z,76.00
2019-05-10T03:17:27.684Z,76.10
2019-05-10T03:19:56.312Z,76.00
2019-05-10T03:22:25.920Z,76.80
2019-05-10T03:24:54.722Z,76.00
2019-05-10T03:27:23.275Z,76.00
2019-05-10T03:29:52.238Z,76.00
2019-05-10T03:32:21.583Z,76.00
2019-05-10T03:34:50.090Z,76.10
2019-05-10T03:37:18.612Z,76.20
2019-05-10T03:39:47.051Z,76.30
2019-05-10T03:42:15.775Z,76.40
2019-05-10T03:44:44.705Z,76.60
2019-05-10T03:47:13.181Z,76.80
2019-05-10T03:49:41.619Z,77.00
2019-05-10T03:52:10.053Z,77.10
2019-05-10T03:54:38.455Z,77.30
2019-05-10T03:57:13.786Z,77.50
2019-05-10T03:59:37.060Z,77.80
2019-05-10T04:02:05.517Z,77.80
2019-05-10T04:04:33.940Z,78.00
2019-05-10T04:07:02.362Z,78.20
2019-05-10T04:09:31.871Z,78.30
2019-05-10T04:12:00.377Z,78.50
2019-05-10T04:14:28.851Z,78.70
2019-05-10T04:16:57.282Z,78.70
2019-05-10T04:19:26.009Z,78.90
2019-05-10T04:21:54.415Z,78.90
2019-05-10T04:24:22.819Z,78.90
2019-05-10T04:26:51.297Z,78.90
2019-05-10T04:29:19.747Z,78.90
2019-05-10T04:31:48.234Z,79.20
2019-05-10T04:34:16.660Z,79.20
2019-05-10T04:36:45.086Z,79.10
2019-05-10T04:39:13.568Z,79.10
2019-05-10T04:41:41.967Z,79.20
2019-05-10T04:44:10.414Z,79.10
2019-05-10T04:46:38.788Z,79.20
2019-05-10T04:49:07.289Z,79.30
2019-05-10T04:51:35.695Z,79.10
2019-05-10T04:54:04.236Z,79.10
2019-05-10T04:56:32.667Z,79.10
2019-05-10T04:59:01.074Z,79.10
2019-05-10T05:01:29.475Z,79.00
2019-05-10T05:03:57.918Z,79.00
2019-05-10T05:06:26.377Z,79.00
2019-05-10T05:08:55.053Z,79.00
2019-05-10T05:11:23.439Z,79.00
2019-05-10T05:13:51.929Z,78.90
2019-05-10T05:16:20.332Z,78.90
2019-05-10T05:18:49.428Z,78.80
2019-05-10T05:21:17.974Z,78.80
2019-05-10T05:23:46.474Z,78.80
2019-05-10T05:26:14.907Z,78.70
2019-05-10T05:28:43.334Z,78.70
2019-05-10T05:31:11.745Z,78.80
2019-05-10T05:33:41.093Z,78.70
2019-05-10T05:36:09.528Z,78.70
2019-05-10T05:38:40.297Z,78.70
2019-05-10T05:41:08.136Z,78.70
2019-05-10T05:43:45.808Z,78.60
2019-05-10T05:46:06.717Z,78.60
2019-05-10T05:48:40.422Z,77.90
2019-05-10T05:51:05.332Z,78.80
2019-05-10T05:53:35.788Z,78.70
2019-05-10T05:56:12.692Z,78.50
2019-05-10T05:58:38.290Z,78.40
2019-05-10T06:01:04.431Z,78.40
2019-05-10T06:03:32.852Z,78.40
2019-05-10T06:06:01.268Z,78.40
2019-05-10T06:08:30.336Z,78.30
2019-05-10T06:11:00.012Z,78.30
2019-05-10T06:13:30.956Z,78.20
2019-05-10T06:16:00.264Z,78.30
2019-05-10T06:18:29.239Z,78.30
2019-05-10T06:20:57.636Z,78.20
2019-05-10T06:23:29.211Z,78.10
2019-05-10T06:25:56.578Z,78.00
2019-05-10T06:28:32.383Z,78.00
2019-05-10T06:30:55.255Z,77.80
2019-05-10T06:33:23.692Z,77.80
2019-05-10T06:35:52.099Z,77.90
2019-05-10T06:38:20.547Z,77.70
2019-05-10T06:40:48.976Z,77.60
2019-05-10T06:43:17.390Z,77.70
2019-05-10T06:45:46.660Z,77.70
2019-05-10T06:48:25.763Z,77.60
2019-05-10T06:50:46.203Z,77.50
2019-05-10T06:53:14.618Z,77.40
2019-05-10T06:55:43.040Z,77.40
2019-05-10T06:58:11.454Z,77.50
2019-05-10T07:00:45.062Z,77.40
2019-05-10T07:03:10.301Z,77.50
2019-05-10T07:05:38.723Z,77.40
2019-05-10T07:08:14.935Z,77.60
2019-05-10T07:10:37.309Z,77.70
2019-05-10T07:13:06.603Z,77.70
2019-05-10T07:15:41.525Z,77.70
2019-05-10T07:18:05.525Z,77.80
2019-05-10T07:20:34.690Z,77.90
2019-05-10T07:23:05.988Z,78.00
2019-05-10T07:25:37.626Z,78.10
2019-05-10T07:28:03.658Z,78.20
2019-05-10T07:30:34.733Z,78.60
2019-05-10T07:33:02.392Z,78.60
2019-05-10T07:35:36.319Z,78.60
2019-05-10T07:38:01.286Z,78.60
2019-05-10T07:40:29.813Z,78.80
2019-05-10T07:42:58.267Z,78.90
2019-05-10T07:45:27.301Z,79.10
2019-05-10T07:47:56.362Z,79.10
2019-05-10T07:50:24.777Z,79.30
2019-05-10T07:52:54.437Z,79.30
2019-05-10T07:55:28.065Z,79.50
2019-05-10T07:57:53.046Z,79.70
2019-05-10T08:00:25.210Z,80.00
2019-05-10T08:03:02.423Z,80.10
2019-05-10T08:05:22.049Z,80.30
2019-05-10T08:07:50.475Z,80.50
2019-05-10T08:10:21.578Z,80.80
2019-05-10T08:12:49.073Z,80.80
2019-05-10T08:15:19.739Z,81.00
2019-05-10T08:17:50.640Z,81.10
2019-05-10T08:20:33.343Z,81.30
2019-05-10T08:22:48.789Z,81.50
2019-05-10T08:25:17.220Z,81.70
2019-05-10T08:27:50.425Z,81.70
2019-05-10T08:30:27.973Z,81.70
2019-05-10T08:32:49.833Z,81.60
2019-05-10T08:35:18.839Z,81.50
2019-05-10T08:37:47.501Z,81.30
2019-05-10T08:40:19.832Z,81.10
2019-05-10T08:42:54.165Z,80.90
2019-05-10T08:45:16.686Z,80.80
2019-05-10T08:47:45.587Z,80.80
2019-05-10T08:50:29.332Z,80.80
2019-05-10T08:52:44.573Z,80.70
2019-05-10T08:55:13.312Z,80.70
2019-05-10T08:57:44.392Z,80.70
2019-05-10T09:00:13.303Z,80.50
2019-05-10T09:02:42.839Z,80.60
2019-05-10T09:05:12.552Z,80.90
2019-05-10T09:07:42.916Z,80.90
2019-05-10T09:10:12.845Z,80.70
2019-05-10T09:12:50.570Z,80.60
2019-05-10T09:15:13.433Z,80.50
2019-05-10T09:17:42.989Z,80.40
2019-05-10T09:20:21.083Z,79.90
2019-05-10T09:22:42.660Z,79.10
2019-05-10T09:25:12.873Z,78.80
2019-05-10T09:27:43.186Z,78.60
2019-05-10T09:30:14.234Z,78.20
2019-05-10T09:32:43.532Z,77.90
2019-05-10T09:35:13.096Z,77.60
2019-05-10T09:37:42.213Z,77.00
2019-05-10T09:40:13.194Z,76.60
2019-05-10T09:42:43.633Z,76.30
2019-05-10T09:45:12.819Z,76.20
2019-05-10T09:47:43.345Z,76.10
2019-05-10T09:50:12.774Z,75.80
2019-05-10T09:52:41.396Z,75.60
2019-05-10T09:55:14.576Z,75.30
2019-05-10T09:57:40.297Z,74.90
2019-05-10T10:00:10.353Z,74.60
2019-05-10T10:02:40.665Z,74.50
2019-05-10T10:05:09.905Z,74.40
2019-05-10T10:07:38.353Z,74.50
2019-05-10T10:10:07.537Z,74.70
2019-05-10T10:12:37.324Z,74.80
2019-05-10T10:15:09.203Z,75.80
2019-05-10T10:17:41.971Z,75.30
2019-05-10T10:20:08.568Z,75.40
2019-05-10T10:22:38.166Z,75.20
2019-05-10T10:25:07.548Z,75.30
2019-05-10T10:27:39.262Z,75.40
2019-05-10T10:30:12.730Z,75.70
2019-05-10T10:32:39.719Z,75.90
2019-05-10T10:35:13.284Z,76.10
2019-05-10T10:37:39.180Z,76.20
2019-05-10T10:40:08.897Z,76.10
2019-05-10T10:42:38.272Z,76.00
2019-05-10T10:45:08.450Z,75.90
2019-05-10T10:47:38.046Z,75.80
2019-05-10T10:50:13.179Z,75.00
2019-05-10T10:52:38.777Z,74.60
2019-05-10T10:55:11.309Z,74.30
2019-05-10T10:57:39.290Z,73.70
2019-05-10T11:00:10.458Z,73.70
2019-05-10T11:02:41.247Z,73.30
2019-05-10T11:05:09.107Z,72.90
2019-05-10T11:07:41.064Z,72.00
2019-05-10T11:10:17.875Z,71.00
2019-05-10T11:12:41.056Z,70.30
2019-05-10T11:15:11.225Z,69.70
2019-05-10T11:17:40.726Z,69.40
2019-05-10T11:20:11.502Z,69.10
2019-05-10T11:22:41.843Z,68.90
2019-05-10T11:25:12.884Z,68.50
2019-05-10T11:27:41.568Z,68.10
2019-05-10T11:30:12.084Z,68.00
2019-05-10T11:32:41.862Z,68.00
2019-05-10T11:35:11.791Z,67.80
2019-05-10T11:37:45.395Z,67.50
2019-05-10T11:40:11.786Z,67.20
2019-05-10T11:42:43.803Z,67.00
2019-05-10T11:45:11.212Z,67.40
2019-05-10T11:47:40.878Z,68.10
2019-05-10T11:50:10.764Z,68.60
2019-05-10T11:52:40.740Z,68.70
2019-05-10T11:55:11.415Z,68.60
2019-05-10T11:57:43.958Z,68.70
2019-05-10T12:00:24.447Z,68.50
2019-05-10T12:05:19.963Z,67.80
2019-05-10T12:07:45.612Z,67.50
2019-05-10T12:10:20.697Z,67.40
2019-05-10T12:13:00.562Z,66.90
2019-05-10T12:15:13.991Z,66.10
2019-05-10T12:17:46.330Z,65.20
2019-05-10T12:20:16.829Z,64.40
2019-05-10T12:22:47.447Z,64.40
2019-05-10T12:25:35.916Z,64.40
2019-05-10T12:26:18.753Z,68.40
2019-05-10T12:27:49.194Z,64.30
2019-05-10T12:30:16.202Z,63.70
2019-05-10T12:32:55.827Z,62.60
2019-05-10T12:35:15.301Z,63.00
2019-05-10T12:37:46.263Z,62.10
2019-05-10T12:40:15.331Z,61.60
2019-05-10T12:42:46.913Z,60.40
2019-05-10T12:45:15.443Z,59.50
2019-05-10T12:47:43.858Z,59.50
2019-05-10T12:50:13.157Z,59.20
2019-05-10T12:52:43.199Z,59.30
2019-05-10T12:55:12.547Z,59.30
2019-05-10T12:57:43.430Z,59.30
2019-05-10T13:00:13.981Z,58.70
2019-05-10T13:02:44.793Z,58.20
2019-05-10T13:05:15.651Z,58.00
2019-05-10T13:07:43.706Z,57.80
2019-05-10T13:10:12.703Z,57.40
2019-05-10T13:12:44.181Z,56.30
2019-05-10T13:15:11.599Z,56.20
2019-05-10T13:17:44.207Z,56.20
2019-05-10T13:20:10.719Z,56.10
2019-05-10T13:22:39.491Z,55.70
2019-05-10T13:25:08.906Z,55.10
2019-05-10T13:27:37.765Z,54.40
2019-05-10T13:30:07.430Z,54.20
2019-05-10T13:32:35.852Z,54.00
2019-05-10T13:35:05.709Z,53.70
2019-05-10T13:37:34.296Z,54.30
2019-05-10T13:40:05.289Z,54.30
2019-05-10T13:42:36.773Z,54.30
2019-05-10T13:45:04.676Z,54.20
2019-05-10T13:47:33.357Z,54.10
2019-05-10T13:50:02.049Z,54.00
2019-05-10T13:52:37.741Z,54.00
2019-05-10T13:55:00.679Z,53.90
2019-05-10T13:57:29.107Z,53.80
2019-05-10T13:59:57.665Z,53.70
2019-05-10T14:02:32.640Z,53.70
2019-05-10T14:04:56.260Z,53.40
2019-05-10T14:07:24.716Z,53.60
2019-05-10T14:09:53.121Z,53.70
2019-05-10T14:12:23.179Z,54.70
2019-05-10T14:14:55.380Z,53.80
2019-05-10T14:17:23.031Z,53.80
2019-05-10T14:19:51.451Z,53.40
2019-05-10T14:22:19.995Z,53.10
2019-05-10T14:24:53.151Z,52.70
2019-05-10T14:27:18.537Z,52.30
2019-05-10T14:29:46.940Z,52.90
2019-05-10T14:32:15.421Z,52.60
2019-05-10T14:34:44.566Z,52.40
2019-05-10T14:37:19.195Z,52.30
2019-05-10T14:39:44.222Z,52.60
2019-05-10T14:42:12.647Z,51.90
2019-05-10T14:44:41.046Z,51.80
2019-05-10T14:47:11.115Z,51.80
2019-05-10T14:49:42.237Z,51.30
2019-05-10T14:52:09.921Z,51.30
2019-05-10T14:54:43.829Z,51.30
2019-05-10T14:57:08.531Z,51.10
2019-05-10T14:59:37.157Z,51.10
2019-05-10T15:02:05.575Z,51.00
2019-05-10T15:04:49.442Z,50.90
2019-05-10T15:07:08.755Z,51.00
2019-05-10T15:09:34.328Z,50.90
2019-05-10T15:12:02.737Z,51.00
2019-05-10T15:14:31.166Z,51.00
2019-05-10T15:16:59.588Z,50.90
2019-05-10T15:19:31.254Z,51.10
2019-05-10T15:21:58.171Z,50.90
2019-05-10T15:24:26.592Z,51.30
2019-05-10T15:26:55.001Z,50.70
2019-05-10T15:29:24.818Z,51.70
2019-05-10T15:31:53.441Z,50.80
2019-05-10T15:34:21.983Z,50.60
2019-05-10T15:36:50.393Z,50.30
2019-05-10T15:39:23.143Z,50.30
2019-05-10T15:41:53.641Z,50.30
2019-05-10T15:44:19.118Z,50.20
2019-05-10T15:46:47.700Z,50.10
2019-05-10T15:49:22.788Z,50.10
2019-05-10T15:51:48.977Z,49.80
2019-05-10T15:54:17.207Z,49.10
2019-05-10T15:56:45.983Z,49.40
2019-05-10T15:59:18.906Z,49.50
2019-05-10T16:01:45.682Z,49.60
2019-05-10T16:04:14.529Z,49.40
2019-05-10T16:06:42.929Z,49.30
2019-05-10T16:09:17.439Z,49.30
2019-05-10T16:11:41.657Z,49.50
2019-05-10T16:14:10.066Z,49.60
2019-05-10T16:16:39.784Z,49.70
2019-05-10T16:19:12.828Z,49.60
2019-05-10T16:21:39.383Z,49.60
2019-05-10T16:24:07.844Z,49.30
2019-05-10T16:26:36.246Z,49.40
2019-05-10T16:29:04.725Z,49.60
2019-05-10T16:31:33.453Z,49.70
2019-05-10T16:34:02.265Z,50.50
2019-05-10T16:36:30.699Z,50.10
2019-05-10T16:39:01.782Z,50.60
2019-05-10T16:41:29.805Z,49.70
2019-05-10T16:44:00.118Z,49.70
2019-05-10T16:46:28.356Z,49.60
2019-05-10T16:48:56.842Z,49.60
2019-05-10T16:51:25.267Z,49.50
2019-05-10T16:53:53.667Z,49.80
2019-05-10T16:56:22.073Z,49.90
2019-05-10T16:58:53.005Z,50.10
2019-05-10T17:01:25.385Z,50.00
2019-05-10T17:03:59.161Z,49.90
2019-05-10T17:06:21.001Z,49.90
2019-05-10T17:08:49.470Z,50.10
2019-05-10T17:11:17.994Z,50.20
2019-05-10T17:13:46.416Z,50.40
2019-05-10T17:16:16.922Z,50.60
2019-05-10T17:18:49.766Z,50.50
2019-05-10T17:21:15.999Z,50.60
2019-05-10T17:23:46.834Z,50.70
2019-05-10T17:26:14.807Z,51.00
2019-05-10T17:28:43.226Z,51.20
2019-05-10T17:31:11.691Z,52.00
2019-05-10T17:33:42.717Z,51.50
2019-05-10T17:36:14.519Z,51.70
2019-05-10T17:38:40.733Z,52.10
2019-05-10T17:41:09.161Z,52.20
2019-05-10T17:43:37.559Z,52.40
2019-05-10T17:46:05.989Z,52.70
2019-05-10T17:48:34.385Z,53.00
2019-05-10T17:51:02.813Z,53.20
2019-05-10T17:53:31.252Z,53.50
2019-05-10T17:56:03.297Z,53.80
2019-05-10T17:58:33.943Z,54.00
2019-05-10T18:01:01.957Z,54.10
2019-05-10T18:03:30.814Z,54.10
2019-05-10T18:05:59.292Z,54.10
2019-05-10T18:08:27.743Z,54.10
2019-05-10T18:10:57.328Z,54.30
2019-05-10T18:13:26.280Z,54.50
2019-05-10T18:15:54.729Z,54.80
2019-05-10T18:18:23.161Z,55.10
2019-05-10T18:20:51.587Z,55.20
2019-05-10T18:23:21.028Z,55.50
2019-05-10T18:25:52.562Z,55.80
2019-05-10T18:28:21.649Z,56.10
2019-05-10T18:31:01.814Z,56.30
2019-05-10T18:33:30.313Z,56.50
2019-05-10T18:36:00.292Z,56.80
2019-05-10T18:38:30.984Z,57.00
2019-05-10T18:40:58.906Z,57.10
2019-05-10T18:43:27.354Z,57.30
2019-05-10T18:45:55.743Z,57.60
2019-05-10T18:48:24.690Z,57.70
2019-05-10T18:50:53.093Z,57.90
2019-05-10T18:53:21.714Z,58.10
2019-05-10T18:55:50.171Z,58.30
2019-05-10T18:58:23.438Z,58.40
2019-05-10T19:00:49.271Z,58.70
2019-05-10T19:03:17.739Z,58.80
2019-05-10T19:05:46.139Z,59.00
2019-05-10T19:08:14.574Z,59.20
2019-05-10T19:10:43.262Z,59.40
2019-05-10T19:13:12.006Z,59.60
2019-05-10T19:15:46.026Z,59.70
2019-05-10T19:18:11.025Z,59.90
2019-05-10T19:20:39.450Z,60.10
2019-05-10T19:23:13.260Z,60.20
2019-05-10T19:25:38.055Z,60.40
2019-05-10T19:28:07.206Z,60.50
2019-05-10T19:30:35.905Z,60.70
2019-05-10T19:33:04.459Z,60.60
2019-05-10T19:35:35.826Z,60.80
2019-05-10T19:38:03.123Z,60.90
2019-05-10T19:40:31.558Z,61.00
2019-05-10T19:43:00.000Z,61.30
2019-05-10T19:45:31.052Z,61.50
2019-05-10T19:47:58.579Z,61.60
2019-05-10T19:50:30.894Z,61.60
2019-05-10T19:52:58.462Z,61.70
2019-05-10T19:55:27.278Z,61.60
2019-05-10T19:57:56.622Z,61.60
2019-05-10T20:00:25.239Z,61.70
2019-05-10T20:02:53.652Z,61.80
2019-05-10T20:05:22.300Z,62.00
2019-05-10T20:07:50.706Z,62.00
2019-05-10T20:10:19.146Z,62.10
2019-05-10T20:12:47.543Z,62.10
2019-05-10T20:15:16.525Z,62.20
2019-05-10T20:17:45.341Z,62.40
2019-05-10T20:20:14.060Z,62.50
2019-05-10T20:22:42.469Z,62.60
2019-05-10T20:25:11.061Z,62.60
2019-05-10T20:27:39.489Z,62.70
2019-05-10T20:30:08.465Z,62.80
2019-05-10T20:32:36.968Z,62.70
2019-05-10T20:35:06.927Z,62.80
2019-05-10T20:37:35.409Z,62.90
2019-05-10T20:40:05.516Z,63.20
2019-05-10T20:42:33.937Z,63.60
2019-05-10T20:45:07.371Z,63.70
2019-05-10T20:47:32.498Z,64.00
2019-05-10T20:50:00.924Z,64.10
2019-05-10T20:52:29.382Z,64.20
2019-05-10T20:54:57.853Z,64.20
2019-05-10T20:57:27.126Z,64.20
2019-05-10T20:59:55.522Z,64.30
2019-05-10T21:02:24.003Z,64.20
2019-05-10T21:04:52.407Z,64.40
2019-05-10T21:07:20.841Z,64.40
2019-05-10T21:09:50.155Z,65.20
2019-05-10T21:12:18.692Z,64.40
2019-05-10T21:14:47.324Z,64.50
2019-05-10T21:17:15.795Z,64.50
2019-05-10T21:19:44.197Z,64.70
2019-05-10T21:22:12.623Z,64.90
2019-05-10T21:24:41.045Z,65.10
2019-05-10T21:27:09.478Z,65.30
2019-05-10T21:29:37.913Z,65.60
2019-05-10T21:32:06.588Z,65.60
2019-05-10T21:34:37.147Z,66.00
2019-05-10T21:37:05.585Z,66.40
2019-05-10T21:39:37.185Z,66.80
2019-05-10T21:42:05.650Z,67.10
2019-05-10T21:44:34.312Z,67.10
2019-05-10T21:47:02.769Z,67.10
2019-05-10T21:49:31.198Z,67.20
2019-05-10T21:51:59.614Z,67.10
2019-05-10T21:54:28.067Z,67.40
2019-05-10T21:56:56.490Z,67.50
2019-05-10T21:59:25.895Z,67.90
2019-05-10T22:01:54.369Z,68.10
2019-05-10T22:04:23.471Z,68.40
2019-05-10T22:06:51.921Z,68.60
2019-05-10T22:09:20.725Z,68.70
2019-05-10T22:11:49.205Z,68.70
2019-05-10T22:14:17.623Z,69.00
2019-05-10T22:16:46.013Z,69.10
2019-05-10T22:19:14.431Z,69.80
2019-05-10T22:21:42.914Z,69.50
2019-05-10T22:24:12.228Z,69.60
2019-05-10T22:26:40.686Z,69.70
2019-05-10T22:29:09.146Z,69.70
2019-05-10T22:31:37.556Z,69.80
2019-05-10T22:34:06.079Z,69.80
2019-05-10T22:36:35.202Z,69.80
2019-05-10T22:39:07.430Z,69.80
2019-05-10T22:41:35.744Z,69.90
2019-05-10T22:44:04.462Z,70.10
2019-05-10T22:46:32.870Z,70.10
2019-05-10T22:49:01.369Z,70.20
2019-05-10T22:51:29.768Z,70.30
2019-05-10T22:53:59.783Z,70.70
2019-05-10T22:56:28.315Z,70.70
2019-05-10T22:58:56.764Z,70.70
2019-05-10T23:01:25.260Z,70.70
2019-05-10T23:03:53.689Z,70.70
2019-05-10T23:06:22.103Z,70.80
2019-05-10T23:08:50.756Z,70.90
2019-05-10T23:11:19.386Z,71.10
2019-05-10T23:13:47.856Z,71.10
2019-05-10T23:16:16.270Z,71.20
2019-05-10T23:18:44.708Z,71.00
2019-05-10T23:21:13.138Z,71.20
2019-05-10T23:23:41.557Z,71.30
2019-05-10T23:26:13.095Z,71.30
2019-05-10T23:28:42.061Z,71.40
2019-05-10T23:31:10.468Z,71.60
2019-05-10T23:33:38.901Z,71.80
2019-05-10T23:36:07.308Z,72.00
2019-05-10T23:38:35.757Z,71.80
2019-05-10T23:41:04.321Z,71.90
2019-05-10T23:43:32.754Z,71.70
2019-05-10T23:46:01.156Z,71.80
2019-05-10T23:48:29.583Z,72.10
2019-05-10T23:50:58.009Z,72.10
2019-05-10T23:53:26.470Z,72.40
2019-05-10T23:55:54.980Z,72.30
2019-05-10T23:58:23.380Z,72.50
